createdAt,value
2023-05-03T00:00:03.907Z,8.16
2023-05-03T00:01:03.627Z,8.14
2023-05-03T00:02:03.640Z,8.11
2023-05-03T00:03:03.645Z,8.09
2023-05-03T00:04:03.587Z,8.13
2023-05-03T00:05:04.785Z,8.09
2023-05-03T00:06:03.655Z,8.11
2023-05-03T00:07:03.589Z,8.11
2023-05-03T00:08:03.607Z,8.13
2023-05-03T00:09:03.577Z,8.09
2023-05-03T00:10:03.896Z,8.09
2023-05-03T00:11:03.542Z,8.08
2023-05-03T00:12:03.511Z,8.06
2023-05-03T00:13:03.525Z,8.02
2023-05-03T00:14:03.520Z,8.03
2023-05-03T00:15:03.475Z,8.03
2023-05-03T00:16:03.536Z,8.01
2023-05-03T00:17:03.617Z,7.96
2023-05-03T00:18:03.488Z,7.91
2023-05-03T00:19:03.428Z,7.88
2023-05-03T00:20:03.563Z,7.84
2023-05-03T00:21:03.406Z,7.84
2023-05-03T00:22:03.419Z,7.80
2023-05-03T00:23:03.385Z,7.75
2023-05-03T00:24:03.385Z,7.74
2023-05-03T00:25:03.330Z,7.70
2023-05-03T00:26:03.314Z,7.69
2023-05-03T00:27:03.300Z,7.66
2023-05-03T00:28:03.296Z,7.67
2023-05-03T00:29:03.289Z,7.66
2023-05-03T00:30:03.520Z,7.66
2023-05-03T00:31:03.318Z,7.64
2023-05-03T00:32:03.247Z,7.66
2023-05-03T00:33:03.303Z,7.66
2023-05-03T00:34:03.226Z,7.64
2023-05-03T00:35:03.234Z,7.62
2023-05-03T00:36:03.194Z,7.62
2023-05-03T00:37:03.211Z,7.61
2023-05-03T00:38:03.191Z,7.59
2023-05-03T00:39:03.205Z,7.56
2023-05-03T00:40:03.372Z,7.53
2023-05-03T00:41:03.159Z,7.55
2023-05-03T00:42:03.143Z,7.53
2023-05-03T00:43:03.179Z,7.51
2023-05-03T00:44:03.085Z,7.48
2023-05-03T00:45:03.138Z,7.46
2023-05-03T00:46:15.371Z,7.43
2023-05-03T00:47:04.150Z,7.44
2023-05-03T00:48:03.101Z,7.41
2023-05-03T00:49:03.079Z,7.39
2023-05-03T00:50:03.317Z,7.41
2023-05-03T00:51:03.035Z,7.40
2023-05-03T00:52:03.060Z,7.44
2023-05-03T00:53:03.068Z,7.41
2023-05-03T00:54:03.022Z,7.40
2023-05-03T00:55:03.067Z,7.32
2023-05-03T00:56:02.977Z,7.31
2023-05-03T00:57:03.010Z,7.33
2023-05-03T00:58:03.004Z,7.31
2023-05-03T00:59:02.965Z,7.28
2023-05-03T01:00:03.173Z,7.26
2023-05-03T01:01:02.983Z,7.25
2023-05-03T01:02:03.038Z,7.26
2023-05-03T01:03:03.029Z,7.23
2023-05-03T01:04:03.090Z,7.23
2023-05-03T01:05:02.938Z,7.21
2023-05-03T01:06:02.972Z,7.25
2023-05-03T01:07:02.867Z,7.21
2023-05-03T01:08:02.918Z,7.19
2023-05-03T01:09:02.870Z,7.18
2023-05-03T01:10:02.990Z,7.11
2023-05-03T01:11:02.826Z,7.08
2023-05-03T01:12:02.833Z,7.10
2023-05-03T01:13:02.799Z,7.11
2023-05-03T01:14:02.862Z,7.21
2023-05-03T01:15:02.864Z,7.13
2023-05-03T01:16:02.865Z,7.10
2023-05-03T01:17:02.772Z,7.07
2023-05-03T01:18:02.802Z,7.07
2023-05-03T01:19:02.810Z,7.05
2023-05-03T01:20:03.082Z,7.04
2023-05-03T01:21:02.796Z,7.01
2023-05-03T01:22:02.777Z,7.04
2023-05-03T01:23:02.790Z,7.01
2023-05-03T01:24:02.680Z,7.03
2023-05-03T01:25:02.708Z,7.03
2023-05-03T01:26:02.723Z,7.03
2023-05-03T01:27:02.687Z,7.03
2023-05-03T01:28:02.624Z,7.01
2023-05-03T01:29:02.655Z,6.96
2023-05-03T01:30:02.967Z,6.97
2023-05-03T01:31:02.662Z,6.95
2023-05-03T01:32:02.624Z,6.90
2023-05-03T01:33:02.664Z,6.95
2023-05-03T01:34:02.663Z,6.92
2023-05-03T01:35:02.647Z,6.90
2023-05-03T01:36:02.584Z,6.92
2023-05-03T01:37:02.594Z,6.86
2023-05-03T01:38:03.510Z,6.85
2023-05-03T01:39:02.558Z,6.85
2023-05-03T01:40:02.763Z,6.87
2023-05-03T01:41:02.510Z,6.89
2023-05-03T01:42:02.597Z,6.87
2023-05-03T01:43:02.546Z,6.89
2023-05-03T01:44:02.517Z,6.85
2023-05-03T01:45:02.473Z,6.87
2023-05-03T01:46:02.539Z,6.89
2023-05-03T01:47:02.464Z,6.86
2023-05-03T01:48:02.559Z,6.86
2023-05-03T01:49:02.477Z,6.85
2023-05-03T01:50:02.696Z,6.85
2023-05-03T01:51:02.390Z,6.85
2023-05-03T01:52:02.392Z,6.83
2023-05-03T01:53:02.422Z,6.85
2023-05-03T01:54:02.507Z,6.83
2023-05-03T01:55:02.381Z,6.82
2023-05-03T01:56:02.319Z,6.85
2023-05-03T01:57:02.354Z,6.80
2023-05-03T01:58:02.412Z,6.82
2023-05-03T01:59:02.319Z,6.78
2023-05-03T02:00:02.527Z,6.80
2023-05-03T02:01:02.410Z,6.80
2023-05-03T02:02:02.353Z,6.82
2023-05-03T02:03:02.320Z,6.80
2023-05-03T02:04:02.275Z,6.78
2023-05-03T02:05:02.324Z,6.78
2023-05-03T02:06:02.271Z,6.74
2023-05-03T02:07:02.308Z,6.74
2023-05-03T02:08:02.266Z,6.72
2023-05-03T02:09:02.323Z,6.67
2023-05-03T02:10:02.390Z,6.68
2023-05-03T02:11:02.280Z,6.70
2023-05-03T02:12:02.238Z,6.68
2023-05-03T02:13:02.180Z,6.70
2023-05-03T02:14:02.171Z,6.68
2023-05-03T02:15:02.140Z,6.64
2023-05-03T02:16:02.146Z,6.64
2023-05-03T02:17:02.340Z,6.64
2023-05-03T02:18:02.229Z,6.65
2023-05-03T02:19:02.155Z,6.65
2023-05-03T02:20:02.276Z,6.67
2023-05-03T02:21:02.091Z,6.68
2023-05-03T02:22:02.051Z,6.65
2023-05-03T02:23:02.090Z,6.64
2023-05-03T02:24:02.042Z,6.65
2023-05-03T02:25:02.043Z,6.62
2023-05-03T02:26:02.067Z,6.60
2023-05-03T02:27:02.109Z,6.59
2023-05-03T02:28:02.045Z,6.60
2023-05-03T02:29:02.002Z,6.57
2023-05-03T02:30:02.357Z,6.60
2023-05-03T02:31:02.062Z,6.59
2023-05-03T02:32:02.005Z,6.59
2023-05-03T02:33:02.008Z,6.57
2023-05-03T02:34:01.946Z,6.60
2023-05-03T02:35:01.921Z,6.57
2023-05-03T02:36:01.921Z,6.60
2023-05-03T02:37:01.923Z,6.60
2023-05-03T02:38:01.912Z,6.62
2023-05-03T02:39:01.875Z,6.60
2023-05-03T02:40:02.079Z,6.60
2023-05-03T02:41:01.815Z,6.56
2023-05-03T02:42:01.865Z,6.54
2023-05-03T02:43:01.852Z,6.52
2023-05-03T02:44:01.883Z,6.47
2023-05-03T02:45:01.862Z,6.47
2023-05-03T02:46:01.912Z,6.41
2023-05-03T02:47:01.833Z,6.41
2023-05-03T02:48:01.877Z,6.39
2023-05-03T02:49:01.796Z,6.39
2023-05-03T02:50:02.263Z,6.38
2023-05-03T02:51:01.764Z,6.34
2023-05-03T02:52:01.786Z,6.34
2023-05-03T02:53:01.795Z,6.31
2023-05-03T02:54:01.729Z,6.28
2023-05-03T02:55:01.720Z,6.29
2023-05-03T02:56:01.722Z,6.28
2023-05-03T02:57:01.767Z,6.26
2023-05-03T02:58:01.681Z,6.26
2023-05-03T02:59:01.678Z,6.22
2023-05-03T03:00:02.152Z,6.25
2023-05-03T03:01:01.650Z,6.17
2023-05-03T03:02:01.748Z,6.17
2023-05-03T03:03:01.881Z,6.15
2023-05-03T03:04:01.751Z,6.13
2023-05-03T03:05:01.641Z,6.09
2023-05-03T03:06:01.641Z,6.15
2023-05-03T03:07:01.622Z,6.16
2023-05-03T03:08:01.621Z,6.19
2023-05-03T03:09:01.603Z,6.10
2023-05-03T03:10:01.695Z,6.12
2023-05-03T03:11:01.561Z,6.09
2023-05-03T03:12:01.586Z,6.06
2023-05-03T03:13:01.525Z,6.05
2023-05-03T03:14:01.516Z,5.99
2023-05-03T03:15:01.539Z,5.97
2023-05-03T03:16:01.587Z,5.98
2023-05-03T03:17:01.564Z,5.95
2023-05-03T03:18:01.469Z,5.95
2023-05-03T03:19:01.443Z,5.94
2023-05-03T03:20:01.614Z,5.94
2023-05-03T03:21:01.424Z,5.95
2023-05-03T03:22:01.420Z,5.92
2023-05-03T03:23:01.416Z,5.88
2023-05-03T03:24:01.463Z,5.87
2023-05-03T03:25:01.391Z,5.94
2023-05-03T03:26:01.394Z,5.94
2023-05-03T03:27:01.480Z,5.92
2023-05-03T03:28:01.434Z,5.88
2023-05-03T03:29:01.412Z,5.87
2023-05-03T03:30:01.656Z,5.84
2023-05-03T03:31:01.390Z,5.81
2023-05-03T03:32:01.464Z,5.79
2023-05-03T03:33:01.344Z,5.76
2023-05-03T03:34:01.374Z,5.73
2023-05-03T03:35:01.308Z,5.72
2023-05-03T03:36:01.315Z,5.72
2023-05-03T03:37:01.273Z,5.70
2023-05-03T03:38:01.311Z,5.70
2023-05-03T03:39:01.275Z,5.69
2023-05-03T03:40:01.478Z,5.73
2023-05-03T03:41:01.257Z,5.74
2023-05-03T03:42:01.208Z,5.72
2023-05-03T03:43:01.180Z,5.72
2023-05-03T03:44:01.131Z,5.70
2023-05-03T03:45:01.133Z,5.69
2023-05-03T03:46:01.167Z,5.67
2023-05-03T03:47:01.169Z,5.67
2023-05-03T03:48:01.196Z,5.72
2023-05-03T03:49:01.122Z,5.72
2023-05-03T03:50:01.454Z,5.70
2023-05-03T03:51:01.117Z,5.65
2023-05-03T03:52:01.120Z,5.64
2023-05-03T03:53:01.118Z,5.61
2023-05-03T03:54:01.114Z,5.62
2023-05-03T03:55:01.089Z,5.61
2023-05-03T03:56:01.064Z,5.61
2023-05-03T03:57:01.059Z,5.61
2023-05-03T03:58:01.076Z,5.61
2023-05-03T03:59:01.049Z,5.58
2023-05-03T04:00:01.468Z,5.61
2023-05-03T04:01:01.012Z,5.64
2023-05-03T04:02:01.102Z,5.64
2023-05-03T04:03:01.116Z,5.64
2023-05-03T04:04:01.095Z,5.64
2023-05-03T04:05:00.969Z,5.67
2023-05-03T04:06:01.046Z,5.65
2023-05-03T04:07:01.001Z,5.62
2023-05-03T04:08:00.962Z,5.62
2023-05-03T04:09:00.925Z,5.62
2023-05-03T04:10:01.338Z,5.61
2023-05-03T04:11:00.903Z,5.64
2023-05-03T04:12:00.917Z,5.67
2023-05-03T04:13:00.881Z,5.69
2023-05-03T04:14:00.821Z,5.72
2023-05-03T04:15:00.850Z,5.72
2023-05-03T04:16:02.131Z,5.70
2023-05-03T04:17:00.958Z,5.65
2023-05-03T04:18:00.843Z,5.67
2023-05-03T04:19:00.821Z,5.65
2023-05-03T04:20:01.287Z,5.67
2023-05-03T04:21:00.847Z,5.65
2023-05-03T04:22:00.791Z,5.69
2023-05-03T04:23:00.879Z,5.67
2023-05-03T04:24:00.844Z,5.70
2023-05-03T04:25:00.740Z,5.72
2023-05-03T04:26:02.432Z,5.65
2023-05-03T04:27:00.745Z,5.67
2023-05-03T04:28:00.714Z,5.67
2023-05-03T04:29:00.690Z,5.69
2023-05-03T04:30:00.835Z,5.67
2023-05-03T04:31:00.738Z,5.69
2023-05-03T04:32:00.727Z,5.70
2023-05-03T04:33:00.716Z,5.69
2023-05-03T04:34:01.798Z,5.70
2023-05-03T04:35:00.669Z,5.70
2023-05-03T04:36:00.668Z,5.72
2023-05-03T04:37:00.616Z,5.72
2023-05-03T04:38:00.620Z,5.73
2023-05-03T04:39:00.618Z,5.76
2023-05-03T04:40:00.976Z,5.76
2023-05-03T04:41:00.634Z,5.79
2023-05-03T04:42:00.576Z,5.76
2023-05-03T04:43:00.661Z,5.73
2023-05-03T04:44:00.569Z,5.72
2023-05-03T04:45:00.593Z,5.72
2023-05-03T04:46:00.578Z,5.74
2023-05-03T04:47:00.536Z,5.77
2023-05-03T04:48:00.594Z,5.77
2023-05-03T04:49:01.816Z,5.81
2023-05-03T04:50:00.710Z,5.81
2023-05-03T04:51:00.458Z,5.81
2023-05-03T04:52:00.423Z,5.88
2023-05-03T04:53:00.466Z,5.88
2023-05-03T04:54:00.413Z,5.88
2023-05-03T04:55:00.428Z,5.90
2023-05-03T04:56:00.445Z,5.97
2023-05-03T04:57:00.457Z,5.94
2023-05-03T04:58:00.363Z,5.97
2023-05-03T04:59:00.344Z,5.97
2023-05-03T05:00:00.444Z,5.99
2023-05-03T05:01:00.353Z,6.02
2023-05-03T05:02:00.521Z,6.09
2023-05-03T05:03:00.391Z,6.16
2023-05-03T05:04:00.539Z,6.25
2023-05-03T05:05:00.308Z,6.26
2023-05-03T05:06:00.309Z,6.22
2023-05-03T05:07:00.313Z,6.25
2023-05-03T05:08:00.284Z,6.31
2023-05-03T05:09:00.266Z,6.29
2023-05-03T05:10:00.410Z,6.34
2023-05-03T05:11:00.293Z,6.34
2023-05-03T05:12:00.247Z,6.43
2023-05-03T05:13:00.236Z,6.41
2023-05-03T05:14:00.228Z,6.43
2023-05-03T05:15:00.209Z,6.47
2023-05-03T05:16:00.227Z,6.46
2023-05-03T05:17:00.370Z,6.50
2023-05-03T05:18:00.249Z,6.52
2023-05-03T05:19:00.174Z,6.54
2023-05-03T05:20:00.458Z,6.54
2023-05-03T05:21:00.146Z,6.62
2023-05-03T05:22:00.123Z,6.83
2023-05-03T05:23:00.158Z,6.86
2023-05-03T05:24:00.154Z,7.00
2023-05-03T05:25:00.122Z,7.14
2023-05-03T05:26:00.130Z,7.33
2023-05-03T05:27:00.205Z,7.51
2023-05-03T05:28:00.115Z,7.64
2023-05-03T05:29:00.057Z,7.70
2023-05-03T05:30:00.229Z,7.80
2023-05-03T05:31:00.019Z,7.85
2023-05-03T05:32:00.116Z,7.88
2023-05-03T05:33:00.036Z,7.93
2023-05-03T05:33:59.987Z,8.02
2023-05-03T05:34:59.931Z,8.03
2023-05-03T05:35:59.947Z,8.09
2023-05-03T05:36:59.969Z,8.20
2023-05-03T05:37:59.951Z,8.26
2023-05-03T05:38:59.915Z,8.31
2023-05-03T05:39:59.982Z,8.34
2023-05-03T05:40:59.931Z,8.34
2023-05-03T05:41:59.898Z,8.38
2023-05-03T05:43:00.033Z,8.45
2023-05-03T05:44:00.189Z,8.56
2023-05-03T05:44:59.862Z,8.63
2023-05-03T05:45:59.951Z,8.86
2023-05-03T05:46:59.881Z,9.08
2023-05-03T05:47:59.965Z,9.36
2023-05-03T05:48:59.835Z,9.58
2023-05-03T05:50:00.063Z,9.80
2023-05-03T05:50:59.783Z,9.99
2023-05-03T05:51:59.784Z,10.18
2023-05-03T05:52:59.791Z,10.31
2023-05-03T05:54:00.081Z,10.45
2023-05-03T05:54:59.792Z,10.53
2023-05-03T05:55:59.776Z,10.67
2023-05-03T05:56:59.776Z,10.80
2023-05-03T05:57:59.744Z,10.95
2023-05-03T05:58:59.731Z,11.16
2023-05-03T05:59:59.757Z,11.23
2023-05-03T06:00:59.719Z,11.27
2023-05-03T06:01:59.766Z,11.38
2023-05-03T06:02:59.775Z,11.44
2023-05-03T06:03:59.662Z,11.58
2023-05-03T06:04:59.745Z,11.62
2023-05-03T06:05:59.806Z,11.73
2023-05-03T06:06:59.659Z,11.78
2023-05-03T06:07:59.780Z,11.89
2023-05-03T06:09:01.258Z,11.97
2023-05-03T06:10:00.622Z,12.02
2023-05-03T06:10:59.680Z,12.02
2023-05-03T06:11:59.606Z,12.12
2023-05-03T06:13:01.456Z,12.21
2023-05-03T06:13:59.557Z,12.26
2023-05-03T06:15:02.803Z,12.29
2023-05-03T06:15:59.597Z,12.29
2023-05-03T06:16:59.613Z,12.32
2023-05-03T06:17:59.576Z,12.36
2023-05-03T06:18:59.722Z,12.37
2023-05-03T06:19:59.591Z,12.45
2023-05-03T06:20:59.515Z,12.58
2023-05-03T06:21:59.488Z,12.58
2023-05-03T06:22:59.570Z,12.57
2023-05-03T06:23:59.488Z,12.63
2023-05-03T06:24:59.487Z,12.68
2023-05-03T06:25:59.668Z,12.84
2023-05-03T06:26:59.495Z,12.99
2023-05-03T06:27:59.534Z,13.08
2023-05-03T06:28:59.557Z,13.13
2023-05-03T06:29:59.412Z,13.16
2023-05-03T06:30:59.431Z,13.21
2023-05-03T06:31:59.358Z,13.21
2023-05-03T06:32:59.400Z,13.20
2023-05-03T06:33:59.429Z,13.23
2023-05-03T06:34:59.526Z,13.30
2023-05-03T06:35:59.413Z,13.37
2023-05-03T06:36:59.373Z,13.33
2023-05-03T06:37:59.524Z,13.33
2023-05-03T06:38:59.324Z,13.46
2023-05-03T06:39:59.292Z,13.57
2023-05-03T06:40:59.344Z,13.65
2023-05-03T06:41:59.483Z,13.65
2023-05-03T06:42:59.267Z,13.50
2023-05-03T06:43:59.248Z,13.40
2023-05-03T06:44:59.260Z,13.30
2023-05-03T06:45:59.300Z,13.24
2023-05-03T06:46:59.276Z,13.23
2023-05-03T06:47:59.306Z,-39.95
2023-05-03T06:48:59.306Z,-39.95
2023-05-03T06:49:59.185Z,-39.95
2023-05-03T06:50:59.187Z,-39.95
2023-05-03T06:51:59.189Z,-39.95
2023-05-03T06:52:59.210Z,-39.95
2023-05-03T06:53:59.228Z,-39.95
2023-05-03T06:54:59.156Z,-39.95
2023-05-03T06:55:59.116Z,-39.95
2023-05-03T06:56:59.336Z,-39.95
2023-05-03T06:57:59.101Z,-39.95
2023-05-03T06:58:59.101Z,-39.95
2023-05-03T06:59:59.202Z,-39.95
2023-05-03T07:00:59.092Z,-39.95
2023-05-03T07:01:59.096Z,-39.95
2023-05-03T07:02:59.124Z,-39.95
2023-05-03T07:03:59.208Z,-39.95
2023-05-03T07:04:59.021Z,-39.95
2023-05-03T07:05:58.981Z,-39.95
2023-05-03T07:06:59.012Z,-39.95
2023-05-03T07:07:59.076Z,-39.95
2023-05-03T07:08:58.966Z,-39.95
2023-05-03T07:09:58.959Z,-39.95
2023-05-03T07:10:58.979Z,-39.95
2023-05-03T07:11:58.981Z,-39.95
2023-05-03T07:12:58.982Z,-39.95
2023-05-03T07:13:58.906Z,-39.95
2023-05-03T07:14:58.928Z,-39.95
2023-05-03T07:16:00.362Z,-39.95
2023-05-03T07:16:58.972Z,-39.95
2023-05-03T07:17:59.022Z,-39.95
2023-05-03T07:18:58.938Z,-39.95
2023-05-03T07:19:58.834Z,-39.95
2023-05-03T07:20:58.844Z,-39.95
2023-05-03T07:21:58.897Z,-39.95
2023-05-03T07:22:58.862Z,-39.95
2023-05-03T07:23:58.823Z,-39.95
2023-05-03T07:24:58.932Z,-39.95
2023-05-03T07:25:58.834Z,-39.95
2023-05-03T07:26:58.821Z,-39.95
2023-05-03T07:27:58.751Z,-39.95
2023-05-03T07:28:58.783Z,-39.95
2023-05-03T07:29:58.743Z,-39.95
2023-05-03T07:30:58.746Z,-39.95
2023-05-03T07:31:58.679Z,-39.95
2023-05-03T07:32:58.856Z,-39.95
2023-05-03T07:33:59.044Z,-39.95
2023-05-03T07:34:58.738Z,-39.95
2023-05-03T07:35:58.651Z,-39.95
2023-05-03T07:36:58.694Z,-39.95
2023-05-03T07:37:58.768Z,-39.95
2023-05-03T07:38:58.869Z,-39.95
2023-05-03T07:39:58.648Z,-39.95
2023-05-03T07:40:58.660Z,-39.95
2023-05-03T07:41:58.605Z,-39.95
2023-05-03T07:42:58.582Z,-39.95
2023-05-03T07:43:58.661Z,-39.95
2023-05-03T07:44:58.595Z,-39.95
2023-05-03T07:45:58.714Z,-39.95
2023-05-03T07:46:58.557Z,-39.95
2023-05-03T07:47:58.558Z,-39.95
2023-05-03T07:48:58.559Z,-39.95
2023-05-03T07:49:58.516Z,-39.95
2023-05-03T07:50:58.516Z,-39.95
2023-05-03T07:51:58.500Z,-39.95
2023-05-03T07:52:58.549Z,-39.95
2023-05-03T07:53:58.470Z,-39.95
2023-05-03T07:54:58.469Z,-39.95
2023-05-03T07:55:58.528Z,-39.95
2023-05-03T07:56:58.433Z,-39.95
2023-05-03T07:57:58.479Z,-39.95
2023-05-03T07:59:08.395Z,-39.95
2023-05-03T07:59:59.516Z,-39.95
2023-05-03T08:00:58.442Z,-39.95
2023-05-03T08:02:00.780Z,-39.95
2023-05-03T08:02:58.492Z,-39.95
2023-05-03T08:03:58.891Z,-39.95
2023-05-03T08:04:58.649Z,-39.95
2023-05-03T08:05:58.334Z,-39.95
2023-05-03T08:06:58.396Z,-39.95
2023-05-03T08:07:58.488Z,-39.95
2023-05-03T08:08:58.294Z,-39.95
2023-05-03T08:09:58.325Z,-39.95
2023-05-03T08:10:58.311Z,-39.95
2023-05-03T08:11:58.333Z,-39.95
2023-05-03T08:12:58.262Z,-39.95
2023-05-03T08:13:58.263Z,-39.95
2023-05-03T08:14:58.283Z,-39.95
2023-05-03T08:15:58.268Z,-39.95
2023-05-03T08:16:58.166Z,-39.95
2023-05-03T08:17:58.315Z,-39.95
2023-05-03T08:18:58.648Z,-39.95
2023-05-03T08:19:58.196Z,-39.95
2023-05-03T08:20:58.208Z,-39.95
2023-05-03T08:21:58.271Z,-39.95
2023-05-03T08:22:58.260Z,-39.95
2023-05-03T08:23:58.209Z,-39.95
2023-05-03T08:24:58.173Z,-39.95
2023-05-03T08:25:58.101Z,-39.95
2023-05-03T08:26:58.101Z,-39.95
2023-05-03T08:27:58.161Z,-39.95
2023-05-03T08:28:58.109Z,-39.95
2023-05-03T08:29:58.350Z,-39.95
2023-05-03T08:30:58.121Z,-39.95
2023-05-03T08:31:58.274Z,-39.95
2023-05-03T08:32:58.339Z,-39.95
2023-05-03T08:33:58.192Z,-39.95
2023-05-03T08:34:58.172Z,-39.95
2023-05-03T08:35:58.215Z,-39.95
2023-05-03T08:36:58.215Z,-39.95
2023-05-03T08:37:59.046Z,-39.95
2023-05-03T08:38:58.252Z,-39.95
2023-05-03T08:39:58.166Z,-39.95
2023-05-03T08:40:58.093Z,-39.95
2023-05-03T08:41:58.124Z,-39.95
2023-05-03T08:42:58.109Z,-39.95
2023-05-03T08:43:58.291Z,-39.95
2023-05-03T08:44:58.067Z,-39.95
2023-05-03T08:45:58.174Z,-39.95
2023-05-03T08:46:58.041Z,-39.95
2023-05-03T08:47:57.953Z,-39.95
2023-05-03T08:48:57.989Z,-39.95
2023-05-03T08:49:57.907Z,-39.95
2023-05-03T08:50:57.900Z,13.23
2023-05-03T08:51:57.879Z,-39.95
2023-05-03T08:52:57.924Z,-39.95
2023-05-03T08:53:57.807Z,-39.95
2023-05-03T08:54:57.800Z,20.77
2023-05-03T08:55:59.245Z,20.85
2023-05-03T08:56:57.846Z,20.86
2023-05-03T08:57:57.809Z,20.83
2023-05-03T08:58:57.781Z,21.07
2023-05-03T08:59:58.027Z,21.23
2023-05-03T09:00:57.659Z,21.23
2023-05-03T09:01:57.755Z,-39.95
2023-05-03T09:02:57.723Z,21.30
2023-05-03T09:03:58.047Z,21.22
2023-05-03T09:04:57.740Z,-39.95
2023-05-03T09:05:57.698Z,-39.95
2023-05-03T09:06:57.679Z,-39.95
2023-05-03T09:07:57.857Z,-39.95
2023-05-03T09:08:57.698Z,21.44
2023-05-03T09:09:57.783Z,21.66
2023-05-03T09:10:57.694Z,21.81
2023-05-03T09:11:57.848Z,21.97
2023-05-03T09:12:57.635Z,21.75
2023-05-03T09:13:57.617Z,21.85
2023-05-03T09:14:57.799Z,22.01
2023-05-03T09:15:57.719Z,22.01
2023-05-03T09:16:57.698Z,21.84
2023-05-03T09:17:57.578Z,21.89
2023-05-03T09:18:57.515Z,22.06
2023-05-03T09:19:57.494Z,21.96
2023-05-03T09:20:59.083Z,21.97
2023-05-03T09:21:57.584Z,22.19
2023-05-03T09:22:57.507Z,22.56
2023-05-03T09:23:57.573Z,22.78
2023-05-03T09:24:57.519Z,22.92
2023-05-03T09:25:57.477Z,23.01
2023-05-03T09:26:57.502Z,22.68
2023-05-03T09:27:57.429Z,22.53
2023-05-03T09:28:57.532Z,-39.95
2023-05-03T09:29:57.542Z,-39.95
2023-05-03T10:38:12.287Z,21.92
2023-05-03T10:39:12.281Z,21.45
2023-05-03T10:40:12.331Z,21.17
2023-05-03T10:41:12.316Z,21.01
2023-05-03T10:42:12.280Z,21.01
2023-05-03T10:43:12.355Z,20.96
2023-05-03T10:44:12.290Z,21.01
2023-05-03T10:45:12.339Z,21.10
2023-05-03T10:46:12.321Z,21.23
2023-05-03T10:47:12.231Z,21.32
2023-05-03T10:48:12.365Z,21.40
2023-05-03T10:49:12.594Z,21.47
2023-05-03T10:50:12.205Z,21.53
2023-05-03T10:51:12.141Z,21.70
2023-05-03T10:52:12.170Z,21.81
2023-05-03T10:53:12.138Z,21.96
2023-05-03T10:54:12.142Z,22.59
2023-05-03T10:55:12.103Z,23.23
2023-05-03T10:56:12.120Z,23.77
2023-05-03T10:57:12.141Z,24.11
2023-05-03T10:58:12.160Z,24.55
2023-05-03T10:59:12.148Z,24.81
2023-05-03T11:00:12.109Z,24.78
2023-05-03T11:01:12.214Z,24.85
2023-05-03T11:02:12.097Z,25.14
2023-05-03T11:03:12.093Z,25.54
2023-05-03T11:04:12.517Z,25.99
2023-05-03T11:05:12.116Z,26.23
2023-05-03T11:06:12.142Z,26.45
2023-05-03T11:07:12.006Z,26.53
2023-05-03T11:08:12.051Z,26.66
2023-05-03T11:09:12.081Z,-39.95
2023-05-03T11:10:12.014Z,-39.95
2023-05-03T11:11:11.975Z,-39.95
2023-05-03T11:12:11.954Z,-39.95
2023-05-03T11:13:11.920Z,-39.95
2023-05-03T11:14:11.934Z,-39.95
2023-05-03T11:15:11.950Z,-39.95
2023-05-03T11:16:11.923Z,-39.95
2023-05-03T11:17:11.921Z,-39.95
2023-05-03T11:18:11.996Z,-39.95
2023-05-03T11:19:11.937Z,-39.95
2023-05-03T11:20:11.895Z,-39.95
2023-05-03T11:21:11.953Z,-39.95
2023-05-03T11:22:11.896Z,-39.95
2023-05-03T11:23:11.865Z,-39.95
2023-05-03T11:24:11.842Z,-39.95
2023-05-03T11:25:11.816Z,-39.95
2023-05-03T11:26:11.837Z,-39.95
2023-05-03T11:27:11.759Z,-39.95
2023-05-03T11:28:11.850Z,-39.95
2023-05-03T11:29:11.776Z,-39.95
2023-05-03T11:30:11.775Z,-39.95
2023-05-03T11:31:11.796Z,-39.95
2023-05-03T11:32:11.754Z,-39.95
2023-05-03T11:33:11.783Z,-39.95
2023-05-03T11:34:12.032Z,-39.95
2023-05-03T11:35:11.828Z,24.74
2023-05-03T11:36:11.688Z,-39.95
2023-05-03T11:37:11.745Z,-39.95
2023-05-03T11:38:11.682Z,-39.95
2023-05-03T11:39:11.676Z,-39.95
2023-05-03T11:40:11.649Z,24.84
2023-05-03T11:41:11.639Z,24.84
2023-05-03T11:42:11.663Z,24.88
2023-05-03T11:43:11.662Z,24.79
2023-05-03T11:44:17.586Z,24.94
2023-05-03T11:45:12.641Z,24.99
2023-05-03T11:46:11.635Z,24.99
2023-05-03T11:47:11.751Z,24.94
2023-05-03T11:48:11.648Z,24.96
2023-05-03T11:49:11.598Z,25.11
2023-05-03T11:50:11.558Z,25.15
2023-05-03T11:51:11.541Z,25.30
2023-05-03T11:52:11.596Z,25.49
2023-05-03T11:53:11.544Z,25.58
2023-05-03T11:54:24.123Z,25.81
2023-05-03T11:55:12.509Z,26.08
2023-05-03T11:56:11.488Z,26.34
2023-05-03T11:57:11.506Z,26.34
2023-05-03T11:58:11.778Z,-39.95
2023-05-03T11:59:11.480Z,27.11
2023-05-03T12:00:11.477Z,27.41
2023-05-03T12:01:11.410Z,27.86
2023-05-03T12:02:11.498Z,28.09
2023-05-03T12:03:11.526Z,28.20
2023-05-03T12:04:11.561Z,28.28
2023-05-03T12:05:12.240Z,28.25
2023-05-03T12:06:11.949Z,28.33
2023-05-03T12:07:11.872Z,28.49
2023-05-03T12:08:12.456Z,28.55
2023-05-03T12:09:11.520Z,28.43
2023-05-03T12:10:16.483Z,28.34
2023-05-03T12:11:13.839Z,28.33
2023-05-03T12:12:13.995Z,28.35
2023-05-03T12:13:13.252Z,28.22
2023-05-03T12:14:11.438Z,28.22
2023-05-03T12:15:11.836Z,28.53
2023-05-03T12:16:14.181Z,28.53
2023-05-03T12:17:11.710Z,28.50
2023-05-03T12:18:11.619Z,28.52
2023-05-03T12:19:11.538Z,28.53
2023-05-03T12:20:41.871Z,28.38
2023-05-03T12:22:24.129Z,28.34
2023-05-03T12:23:15.273Z,28.43
2023-05-03T12:24:11.347Z,28.52
2023-05-03T12:25:12.316Z,28.65
2023-05-03T12:26:12.227Z,28.67
2023-05-03T12:27:12.177Z,28.59
2023-05-03T12:30:11.841Z,29.27
2023-05-03T12:31:13.003Z,29.34
2023-05-03T12:32:12.197Z,29.21
2023-05-03T12:33:11.272Z,28.92
2023-05-03T12:34:31.495Z,28.59
2023-05-03T12:35:14.086Z,28.31
2023-05-03T12:36:14.498Z,28.41
2023-05-03T12:37:12.055Z,28.49
2023-05-03T12:38:11.381Z,28.47
2023-05-03T12:39:11.199Z,28.43
2023-05-03T12:40:28.687Z,28.40
2023-05-03T12:41:15.708Z,28.35
2023-05-03T12:42:13.377Z,28.31
2023-05-03T12:43:11.133Z,28.18
2023-05-03T12:44:11.162Z,28.13
2023-05-03T12:45:12.448Z,28.27
2023-05-03T12:47:16.764Z,28.46
2023-05-03T12:48:12.053Z,28.37
2023-05-03T12:49:14.542Z,-39.95
2023-05-03T12:50:12.449Z,-39.95
2023-05-03T12:52:36.486Z,-39.95
2023-05-03T12:53:15.758Z,-39.95
2023-05-03T12:54:12.215Z,-39.95
2023-05-03T12:55:11.711Z,28.43
2023-05-03T12:56:13.600Z,29.02
2023-05-03T12:57:15.698Z,-39.95
2023-05-03T13:00:14.336Z,-39.95
2023-05-03T13:03:20.809Z,28.70
2023-05-03T13:05:15.257Z,28.89
2023-05-03T13:06:14.395Z,29.07
2023-05-03T13:07:13.459Z,29.13
2023-05-03T13:08:12.149Z,28.90
2023-05-03T13:09:14.039Z,28.55
2023-05-03T13:11:11.896Z,28.52
2023-05-03T13:12:10.817Z,28.64
2023-05-03T13:13:10.696Z,28.60
2023-05-03T13:14:10.773Z,28.65
2023-05-03T13:15:10.684Z,28.71
2023-05-03T13:16:10.665Z,28.67
2023-05-03T13:17:10.630Z,28.75
2023-05-03T13:18:11.093Z,28.70
2023-05-03T13:19:10.687Z,28.75
2023-05-03T13:20:10.714Z,28.86
2023-05-03T13:21:10.646Z,28.84
2023-05-03T13:22:11.073Z,28.82
2023-05-03T13:23:10.603Z,28.50
2023-05-03T13:24:10.673Z,28.13
2023-05-03T13:25:10.581Z,28.06
2023-05-03T13:26:10.677Z,28.15
2023-05-03T13:27:10.541Z,28.09
2023-05-03T13:28:10.511Z,27.76
2023-05-03T13:29:10.553Z,27.45
2023-05-03T13:30:10.749Z,27.53
2023-05-03T13:31:10.519Z,27.78
2023-05-03T13:32:10.661Z,28.09
2023-05-03T13:33:10.549Z,28.01
2023-05-03T13:34:10.538Z,27.58
2023-05-03T13:35:10.442Z,27.50
2023-05-03T13:36:10.406Z,27.53
2023-05-03T13:37:10.423Z,27.07
2023-05-03T13:38:10.478Z,27.11
2023-05-03T13:39:10.553Z,27.13
2023-05-03T13:40:10.392Z,27.07
2023-05-03T13:41:10.466Z,26.86
2023-05-03T13:42:10.444Z,26.92
2023-05-03T13:43:10.379Z,27.10
2023-05-03T13:44:10.453Z,27.33
2023-05-03T13:45:10.410Z,27.57
2023-05-03T13:46:10.458Z,27.61
2023-05-03T13:47:10.353Z,27.41
2023-05-03T13:48:18.033Z,27.16
2023-05-03T13:49:11.395Z,27.07
2023-05-03T13:50:10.312Z,26.97
2023-05-03T13:51:10.331Z,27.07
2023-05-03T13:52:10.290Z,27.04
2023-05-03T13:53:10.270Z,26.97
2023-05-03T13:54:10.274Z,26.48
2023-05-03T13:55:10.323Z,25.93
2023-05-03T13:56:10.398Z,25.86
2023-05-03T13:57:10.231Z,26.26
2023-05-03T13:58:10.204Z,26.64
2023-05-03T13:59:10.202Z,26.96
2023-05-03T14:00:10.264Z,26.83
2023-05-03T14:01:10.325Z,26.73
2023-05-03T14:02:10.237Z,-39.95
2023-05-03T14:03:10.299Z,-39.95
2023-05-03T14:04:10.357Z,26.51
2023-05-03T14:05:10.227Z,25.86
2023-05-03T14:06:10.153Z,25.54
2023-05-03T14:07:10.177Z,25.25
2023-05-03T14:08:10.142Z,25.14
2023-05-03T14:09:10.085Z,25.18
2023-05-03T14:10:10.517Z,25.41
2023-05-03T14:11:10.493Z,25.30
2023-05-03T14:12:10.171Z,25.07
2023-05-03T14:13:10.063Z,-39.95
2023-05-03T14:14:10.068Z,-39.95
2023-05-03T14:15:10.089Z,-39.95
2023-05-03T14:16:10.192Z,-39.95